Andover, Kansas
Current Conditions -  °F | °C
As of 2:54 AM on Thursday 27 Nov 2014 (Local Time) from KAAO Reporting Station
Clear Clear  
Wind Chill: 17°   Ceiling: Unl
Heat Index: 23°   Visibility: 10mi
Dew Point: 18°   Wind: 5mph
Humidity: 81%   Direction: 10°N
Pressure: 30.46"   Gusts: NA
Location:  37.71°N, 97.14°W
Report Text: KAAO 270854Z AUTO 01004KT 10SM CLR M05/M08 A3046 RMK AO2 SLP329 T10501078 53008
Loading
Personal Weather Stations






























Interactive Weather Map New forecast layout! Learn more

10-Day Weather Forecast

Advertisements
Track Severe Weather on mobile